Terminal Aerodrome Forecast
Issued by NWS Grand Junction, CO

Home | Current Version | Previous Version | Text Only | Print | Product List | Glossary On
Versions: 1 2 3 4 5 6 7 8 9 10 11 12 13 14 15 16 17 18 19 20 21 22 23 24 25 26 27 28 29 30 31 32 33 34 35 36 37 38 39 40 41 42
000
FTUS45 KGJT 222008 AAA
TAFGJT
TAF AMD
KGJT 222008Z 2220/2318 31008KT P6SM VCSH SCT025 BKN050
      WS020/32030KT
      TEMPO 2220/2221 3SM -RA BR BKN015
     FM222100 31010KT P6SM VCSH SCT025 OVC050 WS020/33030KT
     FM230400 03005KT P6SM SCT050
     FM231300 09005KT P6SM FEW025 SCT060=

USA.gov is the U.S. government's official web portal to all federal, state and local government web resources and services.